INFORMAÇÕES DO AERODROMO
Icao Aerodromo WAMM Nome do Aerodromo Sam Ratulangi Airport Cidade Manado-Celebes Island
Código GPS WAMM Elevação Média 264 ft Tipo de Aerodromo Aeroporto Médio Porte

INFORMAÇÃO DE PISTA
Pista 18 Comprimento da Pista 8693 ft Largura da Pista 148 ft
Elevação da Pista 270 ft Distância de Area de Escape da Pista 0 ft Orientação da Pista 182
Pista 36 Comprimento da Pista 8693 ft Largura da Pista 148 ft
Elevação da Pista 264 ft Distância de Area de Escape da Pista 0 ft Orientação da Pista 2

FREQUÊNCIAS DO AERODROMO
Tipo APP Nome MANADO APP Frequência 119 MHZ
Tipo ATIS Nome ATIS Frequência 126.4 MHZ
Tipo INFO Nome MANADO INF Frequência 891.8 MHZ
Tipo TWR Nome RATULANGI Frequência 118.1 MHZ

INFORMAÇÕES DE NAVEGAÇÃO PRÓXIMO AO AERODROMO
Tipo NDB Nome Manado Frequência 255 KHZ
Tipo VOR-DME Nome Manado Frequência 114200 KHZ
Tipo VOR-DME Nome Manado Frequência 114800 KHZ
Tipo NDB Nome Manado Frequência 290 KHZ

Informações de Meteorologia(METAR atual)
METAR DE WAMM
ADDS - METARS form results

(0131 UTC 26 February 2018)
Data provider http://aviationweather.gov/adds/metars/
 
METAR text: WAMM 260130Z VRB02KT 9000 BKN020 28/24 Q1011 NOSIG
Conditions at: WAMM (MENADO/SAM RATUL, ID) observed 0130 UTC 26 February 2018
Temperature: 28.0°C (82°F)
Dewpoint: 24.0°C (75°F) [RH = 79%]
Pressure (altimeter): 29.85 inches Hg (1011.0 mb)
Winds: variable direction winds at 2 MPH (2 knots; 1.0 m/s)
Visibility: 6 miles (9 km)
Ceiling: 2000 feet AGL
Clouds: broken clouds at 2000 feet AGL
Weather: no significant weather observed at this time

METAR text: WAMM 260100Z 23002KT 9000 SCT017 27/24 Q1012 NOSIG
Conditions at: WAMM (MENADO/SAM RATUL, ID) observed 0100 UTC 26 February 2018
Temperature: 27.0°C (81°F)
Dewpoint: 24.0°C (75°F) [RH = 84%]
Pressure (altimeter): 29.88 inches Hg (1012.0 mb)
Winds: from the SW (230 degrees) at 2 MPH (2 knots; 1.0 m/s)
Visibility: 6 miles (9 km)
Ceiling: at least 12,000 feet AGL
Clouds: scattered clouds at 1700 feet AGL
Weather: no significant weather observed at this time

Forecast for: WAMM (MENADO/SAM RATUL, ID)
Text: TAF COR WAMM 252300Z 2600/2706 31007KT 9999 SCT022
Forecast period: 0000 to 1000 UTC 26 February 2018
Forecast type: FROM: standard forecast or significant change
Winds: from the NW (310 degrees) at 8 MPH (7 knots; 3.6 m/s)
Visibility: 6 or more miles (10+ km)
Clouds: scattered clouds at 2200 feet AGL
Weather: no significant weather forecast for this period
Text: BECMG 2610/2612 06002KT
Forecast period: 1000 UTC 26 February 2018 to 0600 UTC 27 February 2018
Forecast type: BECOMING: Conditions expected to become as follows by 1200 UTC 26 February 2018
Winds: from the ENE (60 degrees) at 2 MPH (2 knots; 1.0 m/s)
Visibility: 6 or more miles (10+ km)
Clouds: scattered clouds at 2200 feet AGL
Weather: no significant weather forecast for this period

MAPA DO AERODROMO


Desenvolvido por Virtual Airlines Manager




Modificado por Servidor Brasil Amigos